Wednesday, June 01, 2016
05:28 UTC
  |  Log In   |  Register Free
Airport Search:

Yellowstone Regional Airport
(KCOD)

Yellowstone Regional Airport Diagram
No Airport Diagram Available

FAA data valid effective May 26 2016 - Jul 21 2016 (unless otherwise noted).

 
 
 
 
 
 
 
 
 
 
 
 
 
 
Current Aviation Weather for KCOD

Weather Summary


The most recent METAR observation for COD was updated at: 12:55 UTC
METAR for KCOD is not available. Closest METAR is for KPOY
KCOD  (most recent observation was updatred at 10:51 UTC)
010515Z AUTO 00000KT 10SM CLR 09/02 A3019 RMK AO1

KPOY  (23.1 nm SW)   (most recent observation was updated at 10:51 UTC)
010515Z AUTO 26005KT 10SM CLR 06/00 A3018 RMK AO2

KU68  (34.1 nm SW)   (most recent observation was updated at 10:51 UTC)
010515Z AUTO 03003KT 10SM SCT075 11/01 A3016 RMK AO2

TAF for KCOD is not available.
KCOD
010526Z 0106/0206 VRB05KT P6SM FEW100 FM011000 18006KT P6SM SCT250 FM011800 13007KT P6SM FEW090 FM012200 13007KT P6SM SCT100 BKN250 FM020400 21007KT P6SM FEW110 BKN250 AMD LTD TO CLD VIS AND WIND

GlobalAir.com is loading additional information.
 Current Weather at COD
50.0 F° (10.0 C°)

Northwest winds at 4.6 mph
Pressure:
30.18 in
Humidity:
54%
Wind:
Northwest at 4.6 mph
Dew Point:
33.8 F° (1.0 C°)
Visibility:
10.00 mi
COD NOAA Radar




Find All Airport Services Find A Hotel Find A Rental Car Find A Golf Course Find A Restaurant $100 Hamburger



Airport Weather Forecast for KCOD

Translated METAR for KCOD (0515 UTC)
METAR:
KCOD 010515Z AUTO 00000KT 10SM CLR 09/02 A3019 RMK AO1
Conditions at:
KCOD (Yellowstone Rgnl, WY) observed 0515 UTC 01 June 2016
Temperature:
9°C (48.2°F)
Dewpoint:
2°C (35.6°F) [RH = 61.5]
Pressure:
30.19 inches Hg (1022.4 mb)
Winds:
from the N (000 degrees) at 0 mph (0 knots: 0 m/s)
Visibility:
10 mile(s)
Ceiling:
at least 12,000 feet AGL
Clouds:
Clear below 12,000 feet AGL
Remarks:
site is un-manned
site is automated and does NOT have a precipitation sensor

Translated TAF for KCOD (Yellowstone Rgnl, WY) (0526 UTC)
TAF text:
KCOD 010526Z 0106/0206 VRB05KT P6SM FEW100
Forecast period:
Wednesday Jun 01 2016 06:00 UTC - Thursday Jun 02 2016 06:00 UTC
Forecast type:
FROM: standard forecast or significant change
Winds:
variable wind direction at 5.8 mph (5 knots: 2.6 m/s)
Visibility:
6 or more mile(s) (9.7+ km)
Ceiling:
at least 12,000 feet AGL
Clouds:
Few Clouds at 10,000 feet AGL
Weather:
no significant weather observed at this time
TAF text:
FM011000 18006KT P6SM SCT250
Forecast period:
Wednesday Jun 01 2016 10:00 UTC - Wednesday Jun 01 2016 18:00 UTC
Forecast type:
FROM: standard forecast or significant change
Winds:
from the S (180 degrees) at 6.9 mph (6 knots: 3.1 m/s)
Visibility:
6 or more mile(s) (9.7+ km)
Ceiling:
at least 12,000 feet AGL
Clouds:
Scattered Clouds at 25,000 feet AGL
Weather:
no significant weather observed at this time
TAF text:
FM011800 13007KT P6SM FEW090
Forecast period:
Wednesday Jun 01 2016 18:00 UTC - Wednesday Jun 01 2016 22:00 UTC
Forecast type:
FROM: standard forecast or significant change
Winds:
from the SE (130 degrees) at 8.1 mph (7 knots: 3.6 m/s)
Visibility:
6 or more mile(s) (9.7+ km)
Ceiling:
at least 12,000 feet AGL
Clouds:
Few Clouds at 9,000 feet AGL
Weather:
no significant weather observed at this time
TAF text:
FM012200 13007KT P6SM SCT100 BKN250
Forecast period:
Wednesday Jun 01 2016 22:00 UTC - Thursday Jun 02 2016 04:00 UTC
Forecast type:
FROM: standard forecast or significant change
Winds:
from the SE (130 degrees) at 8.1 mph (7 knots: 3.6 m/s)
Visibility:
6 or more mile(s) (9.7+ km)
Ceiling:
25,000 feet AGL
Clouds:
Scattered Clouds at 10,000 feet AGL
Broken Cloud Cover at 25,000 feet AGL
Weather:
no significant weather observed at this time
TAF text:
FM020400 21007KT P6SM FEW110 BKN250 LTD TO CLD VIS AND WIND
Forecast period:
Thursday Jun 02 2016 04:00 UTC - Thursday Jun 02 2016 06:00 UTC
Forecast type:
FROM: standard forecast or significant change
Winds:
from the SSW (210 degrees) at 8.1 mph (7 knots: 3.6 m/s)
Visibility:
6 or more mile(s) (9.7+ km)
Ceiling:
25,000 feet AGL
Clouds:
Few Clouds at 11,000 feet AGL
Broken Cloud Cover at 25,000 feet AGL
Weather:
no significant weather observed at this time
FBO's on the Field
FBO Company Facility Photos Services Transportation Aviation Fuel Prices: Prices include tax
Catering Weather Repair Courtesy Rental Type 100LL JetA JetA+ MOGAS 8087
 
Choice Aviation, LLC

This FBO has not yet been rated
FS:Independent
Last Updated: May-27
Login to update fuel prices
SS:
Contact Choice Aviation, LLCMore FBO Information
 
Add another FBO Facility Photos Catering Weather Repair Courtesy Rental Type 100LL JetA JetA+ MOGAS 8087
Services Transportation Aviation Fuel Prices: Prices include tax


model-print
model-print
model-print
model-print